Time;durP1;ratioP1;P1;durP2;ratioP2;P2;SDS_P1;SDS_P2;PMS_P1;PMS_P2;Temp;Humidity;BMP_temperature;BMP_pressure;BME280_temperature;BME280_humidity;BME280_pressure;Samples;Min_cycle;Max_cycle;Signal;HPM_P1;HPM_P2
2023/11/07 01:44:30;;;;;;;2.72;2.13;;;12.40;99.10;;;;;;4998863;28;20469;-86
2023/11/07 01:46:57;;;;;;;2.03;1.77;;;12.40;99.00;;;;;;5002223;28;20213;-88
2023/11/07 01:49:27;;;;;;;2.37;2.00;;;12.50;98.90;;;;;;4987942;28;20457;-88
2023/11/07 01:51:56;;;;;;;2.70;2.40;;;12.50;98.80;;;;;;4985651;28;20445;-89
2023/11/07 01:54:29;;;;;;;3.53;2.05;;;12.50;98.70;;;;;;4983622;28;20528;-87
2023/11/07 01:56:57;;;;;;;3.23;2.40;;;12.50;98.70;;;;;;4972933;28;20193;-86
2023/11/07 01:59:26;;;;;;;2.58;1.92;;;12.50;98.60;;;;;;4989051;28;20425;-90
2023/11/07 02:01:56;;;;;;;3.38;2.45;;;12.60;98.60;;;;;;4969775;28;20212;-88
2023/11/07 02:04:23;;;;;;;3.23;2.00;;;12.60;98.50;;;;;;4983608;28;20443;-89
2023/11/07 02:06:49;;;;;;;3.93;1.97;;;12.70;98.30;;;;;;4961053;28;20556;-89
2023/11/07 02:09:14;;;;;;;3.17;2.15;;;12.60;98.20;;;;;;4969373;28;20528;-88
2023/11/07 02:11:46;;;;;;;3.17;2.30;;;12.60;98.30;;;;;;4975369;28;20853;-89
2023/11/07 02:14:28;;;;;;;2.10;1.90;;;12.70;98.30;;;;;;4976021;28;20448;-88
2023/11/07 02:16:56;;;;;;;3.37;2.30;;;12.60;98.20;;;;;;4991271;28;20219;-89
2023/11/07 02:19:22;;;;;;;3.77;2.20;;;12.60;98.20;;;;;;4981283;28;20567;-86
2023/11/07 02:21:53;;;;;;;3.17;2.20;;;12.60;98.20;;;;;;4992504;28;20526;-89
2023/11/07 02:24:21;;;;;;;7.03;2.20;;;12.60;98.20;;;;;;4959642;28;20538;-87
2023/11/07 02:26:58;;;;;;;2.47;1.90;;;12.50;98.30;;;;;;4966405;28;20491;-88
2023/11/07 02:29:24;;;;;;;4.10;1.97;;;12.50;98.70;;;;;;4985676;28;20181;-89
2023/11/07 02:31:53;;;;;;;3.93;1.97;;;12.60;98.30;;;;;;4971960;28;20457;-90
2023/11/07 02:34:21;;;;;;;2.90;1.90;;;12.50;98.30;;;;;;4976032;28;20486;-88
2023/11/07 02:36:47;;;;;;;3.47;2.20;;;12.50;98.30;;;;;;4986302;28;20478;-86
2023/11/07 02:39:18;;;;;;;2.50;2.13;;;12.50;98.40;;;;;;4968519;28;20457;-87
2023/11/07 02:41:47;;;;;;;3.53;1.90;;;12.50;98.40;;;;;;4967975;28;20452;-87
2023/11/07 02:44:15;;;;;;;3.00;1.97;;;12.50;98.40;;;;;;4972854;28;20441;-87
2023/11/07 02:46:41;;;;;;;6.40;2.30;;;12.50;98.50;;;;;;4987753;28;20446;-89
2023/11/07 02:49:08;;;;;;;2.50;2.00;;;12.40;98.50;;;;;;4991204;28;20520;-88
2023/11/07 02:51:37;;;;;;;4.63;2.40;;;12.40;98.50;;;;;;4951899;28;20444;-88
2023/11/07 02:54:03;;;;;;;3.20;2.43;;;12.40;98.60;;;;;;4972194;28;20452;-89
2023/11/07 02:56:29;;;;;;;2.37;1.97;;;12.40;98.60;;;;;;4960653;28;20462;-88
2023/11/07 02:58:55;;;;;;;2.47;1.93;;;12.40;98.60;;;;;;4969908;28;20528;-90
2023/11/07 03:01:22;;;;;;;2.67;1.97;;;12.40;98.60;;;;;;4959028;28;20486;-87
2023/11/07 03:03:51;;;;;;;3.42;2.03;;;12.40;98.60;;;;;;4970899;28;20433;-88
2023/11/07 03:06:18;;;;;;;2.83;2.20;;;12.40;98.60;;;;;;4963163;28;20215;-85
2023/11/07 03:08:44;;;;;;;2.93;1.93;;;12.50;98.60;;;;;;4990937;28;20476;-83
2023/11/07 03:11:10;;;;;;;1.80;1.70;;;12.40;98.50;;;;;;4984922;28;20437;-87
2023/11/07 03:13:36;;;;;;;4.23;2.00;;;12.40;98.50;;;;;;4986204;28;20212;-87
2023/11/07 03:16:04;;;;;;;2.10;1.93;;;12.50;98.40;;;;;;4965071;28;20474;-86
2023/11/07 03:18:31;;;;;;;4.00;1.73;;;12.50;98.40;;;;;;4991867;28;20487;-86
2023/11/07 03:20:57;;;;;;;2.20;2.00;;;12.50;98.40;;;;;;4961979;28;20458;-86
2023/11/07 03:23:25;;;;;;;2.97;2.07;;;12.40;98.40;;;;;;4970633;28;20466;-86
2023/11/07 03:25:54;;;;;;;3.07;2.20;;;12.40;98.50;;;;;;4975363;28;21073;-86
2023/11/07 03:28:23;;;;;;;4.83;2.23;;;12.40;98.50;;;;;;4990221;28;20464;-86
2023/11/07 03:30:49;;;;;;;2.47;2.27;;;12.40;98.50;;;;;;4995534;28;20442;-85
2023/11/07 03:33:17;;;;;;;2.70;1.97;;;12.40;98.50;;;;;;4995310;28;20527;-86
2023/11/07 03:35:46;;;;;;;2.23;2.00;;;12.40;98.50;;;;;;4992668;28;20461;-88
2023/11/07 03:38:13;;;;;;;2.70;2.03;;;12.30;98.50;;;;;;4960324;28;20443;-85
2023/11/07 03:40:41;;;;;;;1.77;1.67;;;12.30;98.60;;;;;;4991758;28;20434;-87
2023/11/07 03:43:08;;;;;;;2.03;1.83;;;12.40;98.60;;;;;;4992137;28;20488;-87
2023/11/07 03:45:36;;;;;;;2.13;1.70;;;12.30;98.50;;;;;;4978811;28;20544;-87
2023/11/07 03:48:04;;;;;;;2.50;2.03;;;12.40;98.50;;;;;;4974571;28;20529;-86
2023/11/07 03:50:31;;;;;;;2.10;2.00;;;12.30;98.60;;;;;;4989727;28;20428;-87
2023/11/07 03:52:57;;;;;;;3.63;1.80;;;12.30;98.60;;;;;;4977615;28;20255;-86
2023/11/07 03:55:23;;;;;;;2.57;1.93;;;12.40;98.50;;;;;;4979446;28;20461;-85
2023/11/07 03:57:51;;;;;;;2.00;1.90;;;12.40;98.50;;;;;;4992011;28;20435;-86
2023/11/07 04:00:23;;;;;;;1.90;1.80;;;12.40;98.50;;;;;;4974179;28;20465;-87
2023/11/07 04:02:52;;;;;;;2.70;2.10;;;12.40;98.50;;;;;;4993774;28;20506;-89
2023/11/07 04:05:18;;;;;;;2.20;2.10;;;12.30;98.50;;;;;;4976144;28;20553;-87
2023/11/07 04:07:43;;;;;;;2.40;2.20;;;12.30;98.60;;;;;;4970571;28;20517;-87
2023/11/07 04:10:09;;;;;;;3.77;2.20;;;12.30;98.60;;;;;;4981090;28;20426;-86
2023/11/07 04:12:35;;;;;;;1.90;1.80;;;12.30;98.60;;;;;;4977598;28;20451;-85
2023/11/07 04:15:08;;;;;;;2.87;2.30;;;12.30;98.60;;;;;;4973871;28;20466;-84
2023/11/07 04:17:37;;;;;;;2.83;1.70;;;12.30;98.60;;;;;;4988494;28;20948;-87
2023/11/07 04:20:03;;;;;;;3.05;2.13;;;12.30;98.60;;;;;;4990579;28;20429;-88
2023/11/07 04:22:29;;;;;;;3.10;2.80;;;12.30;98.60;;;;;;4973913;28;20193;-88
2023/11/07 04:24:55;;;;;;;2.40;2.20;;;12.30;98.50;;;;;;4977216;28;20453;-89
2023/11/07 04:27:24;;;;;;;2.13;2.00;;;12.40;98.50;;;;;;4993486;28;20204;-85
2023/11/07 04:29:50;;;;;;;2.77;1.83;;;12.40;98.40;;;;;;4978685;28;21368;-88
2023/11/07 04:32:15;;;;;;;2.70;2.60;;;12.40;98.40;;;;;;4988249;28;20426;-86
2023/11/07 04:34:44;;;;;;;2.45;2.25;;;12.40;98.50;;;;;;4989996;28;20430;-87
2023/11/07 04:37:12;;;;;;;2.80;2.40;;;12.40;98.40;;;;;;4982918;28;20199;-87
2023/11/07 04:39:41;;;;;;;2.50;2.13;;;12.40;98.40;;;;;;4977013;28;20450;-89
2023/11/07 04:42:09;;;;;;;2.93;2.20;;;12.40;98.30;;;;;;4993949;28;20456;-87
2023/11/07 04:44:35;;;;;;;2.83;2.07;;;12.40;98.40;;;;;;4993185;28;20449;-86
2023/11/07 04:47:05;;;;;;;2.20;2.00;;;12.30;98.60;;;;;;4978443;28;20467;-88
2023/11/07 04:49:34;;;;;;;2.53;2.07;;;12.30;98.40;;;;;;4976780;28;20448;-87
2023/11/07 04:52:04;;;;;;;2.10;2.00;;;12.30;98.40;;;;;;4970314;28;20430;-86
2023/11/07 04:54:30;;;;;;;3.37;2.20;;;12.30;98.50;;;;;;4973245;28;20466;-87
2023/11/07 04:56:59;;;;;;;2.73;2.53;;;12.30;98.60;;;;;;4973537;28;20453;-87
2023/11/07 04:59:30;;;;;;;2.80;2.30;;;12.30;98.60;;;;;;4967877;28;20454;-87
2023/11/07 05:01:56;;;;;;;3.50;2.40;;;12.20;98.60;;;;;;4968574;28;20462;-88
2023/11/07 05:04:27;;;;;;;2.37;2.10;;;12.30;98.70;;;;;;4976483;28;20514;-88
2023/11/07 05:06:54;;;;;;;2.03;1.90;;;12.30;98.70;;;;;;4972187;28;20527;-86
2023/11/07 05:09:19;;;;;;;2.27;1.93;;;12.30;98.80;;;;;;4993452;28;20549;-89
2023/11/07 05:11:48;;;;;;;2.03;1.90;;;12.20;98.70;;;;;;4992175;28;20551;-88
2023/11/07 05:14:14;;;;;;;1.93;1.83;;;12.20;98.70;;;;;;4974540;28;20200;-87
2023/11/07 05:16:43;;;;;;;3.73;2.60;;;12.20;98.70;;;;;;4988951;28;20425;-82
2023/11/07 05:19:12;;;;;;;2.73;2.53;;;12.20;98.70;;;;;;4956192;28;20427;-85
2023/11/07 05:21:38;;;;;;;2.50;2.20;;;12.30;98.80;;;;;;4970873;28;20592;-87
2023/11/07 05:24:04;;;;;;;2.80;2.30;;;12.20;98.70;;;;;;4976171;28;20423;-87
2023/11/07 05:26:33;;;;;;;2.60;2.40;;;12.20;98.70;;;;;;4970428;28;20197;-88
2023/11/07 05:29:01;;;;;;;2.23;2.00;;;12.20;98.70;;;;;;4984381;28;20445;-87
2023/11/07 05:31:27;;;;;;;2.33;2.10;;;12.20;98.70;;;;;;4988348;28;20766;-87
2023/11/07 05:33:55;;;;;;;2.40;2.00;;;12.20;98.70;;;;;;4974657;28;20507;-88
2023/11/07 05:36:21;;;;;;;2.50;1.83;;;12.20;98.70;;;;;;4954410;28;20429;-87
2023/11/07 05:38:51;;;;;;;3.37;2.20;;;12.20;98.70;;;;;;4971835;28;20188;-88
2023/11/07 05:41:18;;;;;;;2.20;2.00;;;12.30;98.60;;;;;;4974664;28;20472;-85
2023/11/07 05:43:46;;;;;;;2.10;1.90;;;12.30;98.60;;;;;;4957634;28;20450;-88
2023/11/07 05:46:12;;;;;;;5.10;2.27;;;12.20;98.60;;;;;;4990706;28;21280;-88
2023/11/07 05:48:41;;;;;;;2.20;2.00;;;12.20;98.50;;;;;;4986485;28;20203;-86
2023/11/07 05:51:08;;;;;;;2.22;1.83;;;12.20;98.60;;;;;;4968299;28;20434;-85
2023/11/07 05:53:33;;;;;;;2.17;2.07;;;12.30;98.70;;;;;;4992303;28;20232;-90
2023/11/07 05:56:02;;;;;;;2.43;2.23;;;12.30;98.60;;;;;;4970055;28;20441;-87
2023/11/07 05:58:29;;;;;;;2.30;2.10;;;12.30;98.60;;;;;;4962563;28;20547;-87
2023/11/07 06:00:55;;;;;;;3.37;2.57;;;12.30;98.60;;;;;;4966008;28;20434;-87
2023/11/07 06:03:21;;;;;;;2.07;1.87;;;12.20;98.60;;;;;;4968598;28;20444;-87
2023/11/07 06:05:47;;;;;;;3.77;2.70;;;12.20;98.60;;;;;;4934387;28;20459;-84
2023/11/07 06:08:13;;;;;;;2.60;2.37;;;12.20;98.60;;;;;;4981946;28;20489;-88
2023/11/07 06:10:43;;;;;;;2.38;2.17;;;12.20;98.60;;;;;;4973566;28;20469;-88
2023/11/07 06:13:09;;;;;;;2.47;2.00;;;12.30;98.70;;;;;;4979047;28;20207;-89
2023/11/07 06:15:36;;;;;;;2.60;1.90;;;12.30;98.70;;;;;;4957021;28;20454;-84
2023/11/07 06:18:03;;;;;;;2.40;2.20;;;12.30;98.60;;;;;;4990794;28;20462;-86
2023/11/07 06:20:29;;;;;;;1.90;1.80;;;12.20;98.50;;;;;;4991510;28;20491;-90
2023/11/07 06:22:55;;;;;;;2.07;1.87;;;12.20;98.50;;;;;;4985986;28;20457;-89
2023/11/07 06:25:21;;;;;;;2.90;1.92;;;12.20;98.60;;;;;;4988503;28;20472;-89
2023/11/07 06:27:51;;;;;;;2.00;1.90;;;12.30;98.60;;;;;;4953392;28;20295;-88
2023/11/07 06:30:18;;;;;;;2.73;1.73;;;12.30;98.50;;;;;;4974286;28;20435;-86
2023/11/07 06:32:46;;;;;;;2.63;2.47;;;12.30;98.50;;;;;;4986209;28;20422;-88
2023/11/07 06:35:14;;;;;;;3.00;2.80;;;12.30;98.40;;;;;;4982826;28;20429;-88
2023/11/07 06:37:42;;;;;;;3.97;2.27;;;12.30;98.40;;;;;;4983986;28;20465;-88
2023/11/07 06:40:13;;;;;;;2.07;1.97;;;12.30;98.40;;;;;;4967073;28;20453;-88
2023/11/07 06:42:41;;;;;;;2.13;2.00;;;12.20;98.50;;;;;;4966070;28;20452;-88
2023/11/07 06:45:12;;;;;;;2.40;2.17;;;12.20;98.50;;;;;;4966120;28;21194;-87
2023/11/07 06:47:45;;;;;;;2.43;2.10;;;12.20;98.50;;;;;;4991852;28;20509;-88
2023/11/07 06:50:13;;;;;;;2.13;1.93;;;12.20;98.60;;;;;;4968535;28;20453;-90
2023/11/07 06:52:49;;;;;;;2.13;1.93;;;12.20;98.60;;;;;;4966132;28;20943;-88
2023/11/07 06:55:15;;;;;;;1.80;1.70;;;12.20;98.60;;;;;;4965477;28;20437;-88
2023/11/07 06:57:42;;;;;;;3.07;1.90;;;12.20;98.60;;;;;;4985013;28;20447;-86
2023/11/07 07:00:14;;;;;;;2.50;2.30;;;12.20;98.60;;;;;;4967621;28;20445;-85
2023/11/07 07:02:41;;;;;;;4.60;2.37;;;12.20;98.60;;;;;;4991140;28;21190;-87
2023/11/07 07:05:15;;;;;;;3.90;2.13;;;12.20;98.70;;;;;;4975327;28;20424;-89
2023/11/07 07:07:41;;;;;;;2.20;2.00;;;12.20;98.70;;;;;;4967786;28;20481;-86
2023/11/07 07:10:09;;;;;;;2.47;2.28;;;12.20;98.70;;;;;;4984611;28;20466;-85
2023/11/07 07:12:39;;;;;;;1.70;1.60;;;12.20;98.80;;;;;;4952546;28;20191;-85
2023/11/07 07:15:06;;;;;;;2.00;1.80;;;12.20;98.60;;;;;;4982125;28;20598;-86
2023/11/07 07:17:32;;;;;;;3.20;2.37;;;12.20;98.60;;;;;;4989485;28;20435;-85
2023/11/07 07:19:58;;;;;;;3.50;3.20;;;12.20;98.60;;;;;;4983271;28;20430;-85
2023/11/07 07:22:35;;;;;;;2.20;2.07;;;12.20;98.60;;;;;;4979142;28;20501;-88
2023/11/07 07:25:05;;;;;;;2.20;2.10;;;12.20;98.60;;;;;;4970089;28;20445;-88
2023/11/07 07:27:34;;;;;;;2.63;2.33;;;12.20;98.70;;;;;;4954615;28;20498;-86
2023/11/07 07:30:08;;;;;;;2.40;2.07;;;12.20;98.60;;;;;;4971461;28;20759;-88
2023/11/07 07:32:35;;;;;;;2.57;2.40;;;12.10;98.60;;;;;;4971027;28;20441;-85
2023/11/07 07:35:09;;;;;;;2.60;2.40;;;12.10;98.70;;;;;;4956793;28;20424;-88
2023/11/07 07:37:35;;;;;;;2.53;2.33;;;12.10;98.70;;;;;;4974866;28;20431;-88
2023/11/07 07:40:05;;;;;;;2.20;2.00;;;12.10;98.70;;;;;;4991944;28;20440;-87
2023/11/07 07:42:35;;;;;;;2.40;1.90;;;12.10;98.70;;;;;;4959190;28;20448;-89
2023/11/07 07:45:04;;;;;;;3.40;1.80;;;12.10;98.80;;;;;;4995425;28;20464;-84
2023/11/07 07:47:30;;;;;;;2.00;1.90;;;12.10;98.80;;;;;;4986426;28;20493;-85
2023/11/07 07:49:56;;;;;;;2.70;2.50;;;12.10;99.10;;;;;;4996894;28;20430;-83
2023/11/07 07:52:31;;;;;;;2.30;2.10;;;12.10;98.80;;;;;;5017293;28;20426;-86
2023/11/07 07:54:57;;;;;;;2.10;1.90;;;12.10;99.20;;;;;;4985714;28;20469;-85
2023/11/07 07:57:23;;;;;;;2.08;1.90;;;12.10;98.80;;;;;;4990624;28;20465;-86
2023/11/07 07:59:51;;;;;;;3.80;1.93;;;12.20;98.90;;;;;;4992901;28;20191;-89
2023/11/07 08:02:22;;;;;;;3.30;2.00;;;12.20;98.80;;;;;;4990573;28;20194;-89
2023/11/07 08:04:50;;;;;;;2.60;2.20;;;12.20;98.80;;;;;;4968903;28;20534;-89
2023/11/07 08:07:16;;;;;;;4.23;2.50;;;12.20;98.80;;;;;;4989789;28;20526;-89
2023/11/07 08:09:44;;;;;;;5.17;2.07;;;12.20;98.90;;;;;;4956960;28;20463;-87
2023/11/07 08:12:13;;;;;;;2.45;2.13;;;12.20;98.90;;;;;;4993888;28;20435;-86
2023/11/07 08:14:40;;;;;;;2.10;2.00;;;12.20;98.90;;;;;;4992160;28;20304;-86
2023/11/07 08:17:09;;;;;;;2.27;1.90;;;12.20;98.80;;;;;;4974118;28;20439;-90
2023/11/07 08:19:37;;;;;;;2.90;2.17;;;12.20;98.80;;;;;;4983028;28;20512;-90
2023/11/07 08:22:06;;;;;;;2.33;2.03;;;12.20;98.90;;;;;;4978597;28;20434;-86
2023/11/07 08:24:38;;;;;;;2.83;2.03;;;12.20;98.90;;;;;;4970291;28;20224;-87
2023/11/07 08:27:06;;;;;;;2.60;2.40;;;12.20;98.80;;;;;;4989709;28;20485;-88
2023/11/07 08:29:36;;;;;;;2.73;2.43;;;12.20;98.80;;;;;;4979268;28;20445;-88
2023/11/07 08:32:07;;;;;;;3.47;2.07;;;12.20;98.80;;;;;;4971823;28;20482;-89
2023/11/07 08:34:33;;;;;;;3.22;2.20;;;12.20;98.90;;;;;;4973337;28;20435;-82
2023/11/07 08:37:04;;;;;;;1.90;1.80;;;12.30;99.00;;;;;;4989059;28;20648;-84
2023/11/07 08:39:30;;;;;;;2.20;1.90;;;12.20;98.90;;;;;;4972885;28;20540;-86
2023/11/07 08:41:56;;;;;;;2.70;2.33;;;12.30;98.90;;;;;;4974196;28;20431;-88
2023/11/07 08:44:24;;;;;;;4.33;2.80;;;12.20;98.90;;;;;;4972897;28;20469;-89
2023/11/07 08:46:51;;;;;;;2.67;2.40;;;12.20;99.10;;;;;;4995199;28;20435;-88
2023/11/07 08:49:17;;;;;;;3.80;1.87;;;12.20;99.10;;;;;;4992955;28;20439;-88
2023/11/07 08:51:50;;;;;;;2.50;1.90;;;12.20;99.20;;;;;;4999693;28;20427;-86
2023/11/07 08:54:18;;;;;;;2.85;2.65;;;12.20;99.20;;;;;;4963123;28;20444;-84
2023/11/07 08:56:48;;;;;;;3.60;2.43;;;12.20;99.20;;;;;;4988442;28;20213;-87
2023/11/07 08:59:15;;;;;;;4.03;2.10;;;12.20;99.10;;;;;;4981847;28;20461;-90
2023/11/07 09:01:41;;;;;;;2.87;2.67;;;12.30;99.00;;;;;;4972602;28;20690;-88
2023/11/07 09:04:10;;;;;;;2.03;1.83;;;12.30;99.00;;;;;;4996431;28;21120;-85
2023/11/07 09:06:39;;;;;;;3.42;2.10;;;12.20;99.10;;;;;;4997386;28;20424;-88
2023/11/07 09:09:14;;;;;;;2.20;2.10;;;12.20;99.10;;;;;;4968874;28;20514;-90
2023/11/07 09:11:45;;;;;;;2.43;2.30;;;12.30;99.30;;;;;;4967719;28;20440;-89
2023/11/07 09:14:12;;;;;;;2.00;1.90;;;12.30;99.20;;;;;;4989742;28;20518;-90
2023/11/07 09:16:38;;;;;;;2.85;2.22;;;12.30;99.10;;;;;;4958607;28;20433;-86
2023/11/07 09:19:06;;;;;;;2.57;2.30;;;12.30;99.10;;;;;;4985030;28;20263;-87
2023/11/07 09:21:32;;;;;;;4.80;2.43;;;12.30;99.00;;;;;;4987983;28;20834;-86
2023/11/07 09:23:57;;;;;;;2.60;2.27;;;12.30;99.00;;;;;;4985720;28;20415;-87
2023/11/07 09:26:26;;;;;;;3.03;2.73;;;12.30;99.20;;;;;;4956952;28;20222;-90
2023/11/07 09:28:54;;;;;;;2.30;2.10;;;12.30;99.10;;;;;;4990563;28;20508;-89
2023/11/07 09:31:21;;;;;;;3.73;2.50;;;12.30;99.10;;;;;;4988396;28;20481;-89
2023/11/07 09:33:51;;;;;;;2.70;2.50;;;12.30;99.20;;;;;;4982551;28;20425;-87
2023/11/07 09:36:22;;;;;;;2.20;2.00;;;12.30;99.10;;;;;;4985002;28;20525;-88
2023/11/07 09:38:52;;;;;;;2.17;2.07;;;12.30;99.20;;;;;;4962630;28;20468;-90
2023/11/07 09:41:23;;;;;;;2.78;2.58;;;12.30;99.30;;;;;;4952091;28;20488;-90
2023/11/07 09:43:51;;;;;;;2.40;2.20;;;12.30;99.30;;;;;;4978548;28;20249;-89
2023/11/07 09:46:20;;;;;;;2.43;2.23;;;12.40;99.20;;;;;;4987229;28;20433;-87
2023/11/07 09:48:46;;;;;;;2.58;2.38;;;12.40;99.10;;;;;;4962467;28;20473;-89
2023/11/07 09:51:19;;;;;;;4.50;2.47;;;12.30;99.20;;;;;;4986379;28;20876;-88
2023/11/07 09:53:53;;;;;;;2.27;2.07;;;12.40;99.00;;;;;;4967194;28;20482;-88
2023/11/07 09:56:23;;;;;;;5.37;2.77;;;12.40;99.00;;;;;;4960424;28;20454;-88
2023/11/07 09:58:53;;;;;;;4.77;2.80;;;12.40;98.90;;;;;;4981970;28;20424;-88
2023/11/07 10:01:30;;;;;;;2.97;2.70;;;12.40;99.00;;;;;;4993984;28;20452;-89
2023/11/07 10:03:58;;;;;;;4.00;2.30;;;12.40;99.20;;;;;;4961219;28;20446;-86
2023/11/07 10:06:24;;;;;;;2.70;2.50;;;12.30;99.10;;;;;;4974250;28;20789;-85
2023/11/07 10:08:50;;;;;;;5.93;2.50;;;12.40;99.30;;;;;;4983288;28;20515;-88
2023/11/07 10:11:17;;;;;;;2.93;2.63;;;12.30;99.40;;;;;;4947504;28;20178;-89
2023/11/07 10:14:02;;;;;;;3.60;2.70;;;12.30;99.40;;;;;;4969526;28;20459;-87
2023/11/07 10:16:40;;;;;;;3.77;2.20;;;12.40;99.30;;;;;;4976251;28;20170;-88
2023/11/07 10:19:12;;;;;;;3.37;2.37;;;12.40;99.20;;;;;;5002799;28;20488;-90
2023/11/07 10:21:40;;;;;;;2.67;2.47;;;12.40;99.20;;;;;;4985425;28;20437;-88
2023/11/07 10:24:06;;;;;;;2.53;2.33;;;12.40;99.30;;;;;;4971144;28;20517;-88
2023/11/07 10:26:34;;;;;;;4.27;2.23;;;12.40;99.40;;;;;;4960963;28;20547;-88
2023/11/07 10:29:25;;;;;;;3.67;2.30;;;12.40;99.30;;;;;;4984370;28;20878;-88
2023/11/07 10:32:08;;;;;;;2.20;2.00;;;12.40;99.40;;;;;;4961024;28;20441;-89
2023/11/07 10:34:38;;;;;;;3.07;2.20;;;12.40;99.40;;;;;;4974850;28;20427;-89
2023/11/07 10:37:06;;;;;;;2.72;2.38;;;12.40;99.30;;;;;;4961453;28;21090;-89
2023/11/07 10:39:35;;;;;;;2.77;2.50;;;12.40;99.30;;;;;;4973549;28;20202;-88
2023/11/07 10:42:18;;;;;;;2.40;2.20;;;12.50;99.20;;;;;;4956657;28;20465;-87
2023/11/07 10:44:59;;;;;;;2.23;2.13;;;12.50;99.20;;;;;;4973573;28;20756;-88
2023/11/07 10:47:34;;;;;;;2.77;2.57;;;12.40;99.10;;;;;;4960121;28;20569;-89
2023/11/07 10:50:04;;;;;;;3.60;2.50;;;12.40;99.10;;;;;;4974567;28;20475;-88
2023/11/07 10:52:30;;;;;;;3.38;3.08;;;12.40;99.00;;;;;;4976368;28;20481;-88
2023/11/07 10:54:56;;;;;;;3.90;2.43;;;12.50;99.20;;;;;;4972768;28;20244;-87
2023/11/07 10:57:31;;;;;;;5.03;2.23;;;12.50;98.90;;;;;;4970537;28;20433;-88
2023/11/07 11:00:19;;;;;;;2.93;2.60;;;12.50;98.90;;;;;;4960798;28;20474;-89
2023/11/07 11:02:52;;;;;;;2.83;2.63;;;12.60;98.90;;;;;;4992633;28;20449;-88
2023/11/07 11:05:19;;;;;;;3.67;2.50;;;12.60;98.90;;;;;;4970093;28;20460;-88
2023/11/07 11:07:53;;;;;;;2.87;2.30;;;12.60;98.90;;;;;;4960571;28;20482;-88
2023/11/07 11:10:27;;;;;;;2.37;2.17;;;12.60;98.90;;;;;;4957485;28;20440;-87
2023/11/07 11:12:54;;;;;;;2.30;2.20;;;12.50;98.90;;;;;;5003786;28;20523;-87
2023/11/07 11:15:22;;;;;;;2.70;2.50;;;12.50;98.90;;;;;;4975214;28;20177;-88
2023/11/07 11:18:08;;;;;;;4.07;2.40;;;12.60;98.80;;;;;;4992707;28;20453;-87
2023/11/07 11:20:54;;;;;;;2.73;1.83;;;12.60;98.80;;;;;;4968157;28;20452;-87
2023/11/07 11:23:30;;;;;;;2.80;2.60;;;12.60;98.90;;;;;;4961608;28;21167;-88
2023/11/07 11:26:13;;;;;;;2.37;2.20;;;12.60;98.90;;;;;;4995215;28;20431;-88
2023/11/07 11:28:41;;;;;;;2.97;2.47;;;12.60;98.90;;;;;;4992600;28;20481;-89
2023/11/07 11:31:14;;;;;;;4.23;2.40;;;12.60;99.00;;;;;;4966317;28;20499;-89
2023/11/07 11:33:42;;;;;;;3.13;2.10;;;12.60;99.00;;;;;;4947551;28;20484;-89
2023/11/07 11:36:44;;;;;;;3.53;2.60;;;12.60;99.00;;;;;;4976332;28;20471;-88
2023/11/07 11:39:36;;;;;;;3.60;2.37;;;12.60;98.90;;;;;;4977838;28;20427;-89
2023/11/07 11:42:09;;;;;;;6.37;2.33;;;12.60;98.90;;;;;;4976523;28;20457;-87
2023/11/07 11:44:35;;;;;;;2.43;2.10;;;12.60;98.90;;;;;;4967679;28;20459;-89
2023/11/07 11:47:03;;;;;;;2.93;1.97;;;12.60;99.00;;;;;;4992251;28;20436;-89
2023/11/07 11:49:30;;;;;;;2.83;2.20;;;12.60;99.00;;;;;;4976118;28;20440;-88
2023/11/07 11:51:57;;;;;;;2.33;2.13;;;12.60;99.00;;;;;;4986365;28;20817;-89
2023/11/07 11:54:23;;;;;;;6.00;2.40;;;12.60;99.00;;;;;;4973662;28;20456;-89
2023/11/07 11:56:49;;;;;;;2.50;2.10;;;12.60;98.90;;;;;;5000973;28;20605;-88
2023/11/07 11:59:19;;;;;;;3.17;2.47;;;12.70;98.80;;;;;;4985921;28;20977;-89
2023/11/07 12:01:55;;;;;;;2.40;2.20;;;12.70;98.80;;;;;;4951001;28;20434;-88
2023/11/07 12:04:47;;;;;;;2.53;2.33;;;12.70;98.80;;;;;;4981827;28;20438;-89
2023/11/07 12:07:14;;;;;;;2.90;1.90;;;12.80;98.60;;;;;;4996139;28;20496;-86
2023/11/07 12:09:47;;;;;;;2.30;2.10;;;12.70;98.60;;;;;;4984301;28;20466;-86
2023/11/07 12:12:14;;;;;;;2.20;2.07;;;12.70;98.60;;;;;;4987105;28;20218;-89
2023/11/07 12:15:00;;;;;;;2.40;2.20;;;12.80;98.50;;;;;;4992475;28;20457;-88
2023/11/07 12:17:46;;;;;;;3.00;2.30;;;12.80;98.50;;;;;;4998407;28;20444;-87
2023/11/07 12:20:14;;;;;;;3.67;2.40;;;12.80;98.50;;;;;;4988393;28;20436;-87
2023/11/07 12:22:51;;;;;;;5.67;2.47;;;12.80;98.50;;;;;;4977563;28;20469;-88
2023/11/07 12:25:18;;;;;;;2.47;2.28;;;12.80;98.50;;;;;;4981274;28;20486;-87
2023/11/07 12:28:07;;;;;;;5.27;2.50;;;12.80;98.50;;;;;;4987414;28;20214;-88
2023/11/07 12:30:36;;;;;;;3.87;2.73;;;12.80;98.30;;;;;;4979266;28;20700;-90
2023/11/07 12:33:08;;;;;;;5.87;2.73;;;12.80;98.30;;;;;;4983135;28;20568;-86
2023/11/07 12:35:35;;;;;;;3.80;2.33;;;12.80;98.30;;;;;;4966442;28;20505;-87
2023/11/07 12:38:06;;;;;;;3.27;2.17;;;12.80;98.30;;;;;;4985598;28;20846;-86
2023/11/07 12:40:33;;;;;;;3.20;2.40;;;12.80;98.30;;;;;;4987058;28;20464;-86
2023/11/07 12:43:08;;;;;;;3.10;2.20;;;12.80;98.30;;;;;;4974101;28;20471;-87
2023/11/07 12:45:36;;;;;;;2.60;2.30;;;12.80;98.30;;;;;;4961859;28;20436;-88
2023/11/07 12:48:05;;;;;;;2.33;2.13;;;12.80;98.30;;;;;;4986123;28;20480;-87
2023/11/07 12:50:35;;;;;;;3.43;2.03;;;12.80;98.40;;;;;;4991233;28;20522;-88
2023/11/07 12:53:05;;;;;;;2.57;2.10;;;12.80;98.40;;;;;;4994091;28;20495;-86
2023/11/07 12:55:35;;;;;;;2.30;2.10;;;12.80;98.50;;;;;;4998743;28;20444;-87
2023/11/07 12:58:03;;;;;;;2.80;2.30;;;12.80;98.50;;;;;;4977997;28;20432;-88
2023/11/07 13:00:30;;;;;;;2.03;1.83;;;12.80;98.50;;;;;;4962486;28;20453;-88
2023/11/07 13:03:07;;;;;;;2.87;2.50;;;12.80;98.50;;;;;;4975232;28;20779;-87
2023/11/07 13:05:33;;;;;;;2.90;2.10;;;12.80;98.50;;;;;;4966678;28;20457;-87
2023/11/07 13:08:01;;;;;;;4.87;2.03;;;12.80;98.40;;;;;;4987873;28;20467;-87
2023/11/07 13:10:32;;;;;;;4.07;2.33;;;12.80;98.40;;;;;;4948145;28;20916;-88
2023/11/07 13:12:59;;;;;;;3.70;2.40;;;12.90;98.50;;;;;;4995495;28;20434;-87
2023/11/07 13:15:25;;;;;;;3.20;2.07;;;12.80;98.40;;;;;;4988797;28;20443;-89
2023/11/07 13:17:57;;;;;;;2.60;2.40;;;12.90;98.50;;;;;;4980106;28;20542;-89
2023/11/07 13:20:26;;;;;;;2.67;2.10;;;12.90;98.40;;;;;;4977257;28;20528;-90
2023/11/07 13:22:51;;;;;;;4.30;2.37;;;12.90;98.50;;;;;;4971732;28;20518;-88
2023/11/07 13:25:20;;;;;;;3.23;2.90;;;12.90;98.40;;;;;;4995548;28;20457;-88
2023/11/07 13:27:49;;;;;;;5.88;2.30;;;12.90;98.50;;;;;;5010446;28;20479;-87
2023/11/07 13:30:18;;;;;;;2.40;2.00;;;12.90;98.50;;;;;;4978845;28;20203;-89
2023/11/07 13:32:44;;;;;;;2.63;2.13;;;13.00;98.50;;;;;;4988278;28;20437;-87
2023/11/07 13:35:11;;;;;;;2.30;2.10;;;13.00;98.40;;;;;;4969679;28;20464;-88
2023/11/07 13:37:36;;;;;;;2.97;2.33;;;13.00;98.30;;;;;;4978175;28;20201;-88
2023/11/07 13:40:09;;;;;;;2.80;2.30;;;13.00;98.30;;;;;;4977688;28;20525;-89
2023/11/07 13:42:35;;;;;;;4.20;2.00;;;13.00;98.30;;;;;;4994872;28;20960;-88
2023/11/07 13:45:01;;;;;;;2.43;1.93;;;13.00;98.30;;;;;;5003353;28;20447;-89
2023/11/07 13:47:30;;;;;;;2.67;2.40;;;13.00;98.30;;;;;;4969882;28;20475;-88
2023/11/07 13:49:56;;;;;;;3.43;2.30;;;13.00;98.30;;;;;;4977009;28;20481;-89
2023/11/07 13:52:24;;;;;;;4.30;2.60;;;13.00;98.30;;;;;;4977615;28;20462;-87
2023/11/07 13:54:50;;;;;;;2.37;2.10;;;13.00;98.30;;;;;;4976087;28;20516;-88
2023/11/07 13:57:18;;;;;;;2.50;2.30;;;13.00;98.30;;;;;;4981181;28;20467;-87
2023/11/07 13:59:44;;;;;;;2.72;2.35;;;13.00;98.30;;;;;;4979488;28;20468;-87
2023/11/07 14:02:12;;;;;;;3.33;2.00;;;13.00;98.30;;;;;;4969365;28;20234;-86
2023/11/07 14:04:38;;;;;;;2.80;2.60;;;13.00;98.20;;;;;;4983442;28;20223;-89
2023/11/07 14:07:05;;;;;;;3.80;2.23;;;13.10;98.20;;;;;;4976671;28;20457;-88
2023/11/07 14:09:33;;;;;;;2.90;1.97;;;13.00;98.20;;;;;;4993719;28;20469;-88
2023/11/07 14:12:00;;;;;;;3.13;2.20;;;13.10;98.10;;;;;;4976572;28;21065;-86
2023/11/07 14:14:26;;;;;;;2.50;2.13;;;13.10;98.10;;;;;;4964170;28;20429;-88
2023/11/07 14:16:52;;;;;;;2.40;2.00;;;13.10;98.10;;;;;;4984121;28;20934;-88
2023/11/07 14:19:18;;;;;;;4.03;2.20;;;13.10;98.00;;;;;;4976500;28;20452;-89
2023/11/07 14:21:44;;;;;;;3.30;2.10;;;13.00;98.00;;;;;;4992384;28;20461;-89
2023/11/07 14:24:11;;;;;;;2.30;2.10;;;13.10;98.00;;;;;;4986142;28;20976;-88
2023/11/07 14:26:37;;;;;;;2.20;2.10;;;13.10;98.00;;;;;;4976451;28;20497;-87
2023/11/07 14:29:06;;;;;;;3.47;2.30;;;13.00;98.00;;;;;;4984552;28;20463;-88
2023/11/07 14:31:32;;;;;;;2.40;2.30;;;13.00;98.00;;;;;;4997635;28;20413;-88
2023/11/07 14:33:58;;;;;;;2.60;1.93;;;13.00;98.00;;;;;;4968023;28;20456;-89
2023/11/07 14:36:24;;;;;;;2.70;2.45;;;13.00;98.00;;;;;;4996466;28;20425;-90
2023/11/07 14:38:50;;;;;;;2.90;2.20;;;13.10;98.00;;;;;;4976759;28;20206;-89
2023/11/07 14:41:17;;;;;;;5.83;2.57;;;13.10;97.90;;;;;;4978981;28;20448;-90